Time;durP1;ratioP1;P1;durP2;ratioP2;P2;SDS_P1;SDS_P2;PMS_P1;PMS_P2;Temp;Humidity;BMP_temperature;BMP_pressure;BME280_temperature;BME280_humidity;BME280_pressure;Samples;Min_cycle;Max_cycle;Signal;HPM_P1;HPM_P2
2021/11/17 02:26:09;;;;;;;26.47;19.30;;;7.10;99.90;;;;;;4894740;29;20189;-51
2021/11/17 02:29:02;;;;;;;30.40;19.53;;;7.00;99.90;;;;;;4894392;29;20231;-54
2021/11/17 02:31:39;;;;;;;28.83;19.53;;;7.00;99.90;;;;;;4894761;29;20181;-51
2021/11/17 02:34:11;;;;;;;28.43;19.47;;;6.90;99.90;;;;;;4894511;29;20188;-51
2021/11/17 02:37:08;;;;;;;31.43;19.73;;;6.70;99.90;;;;;;4894774;29;20181;-57
2021/11/17 02:40:12;;;;;;;28.80;19.50;;;6.60;99.90;;;;;;4894413;29;20447;-51
2021/11/17 02:42:55;;;;;;;27.00;18.40;;;6.60;99.90;;;;;;4838671;29;20178;-51
2021/11/17 02:45:30;;;;;;;32.67;20.87;;;6.60;99.90;;;;;;4835246;29;20568;-53
2021/11/17 02:48:36;;;;;;;28.23;19.20;;;6.60;99.90;;;;;;4919457;29;20209;-51
2021/11/17 02:51:28;;;;;;;29.77;20.20;;;6.70;99.90;;;;;;4951358;29;20194;-52
2021/11/17 02:54:30;;;;;;;31.07;19.67;;;6.80;99.90;;;;;;4951037;29;20246;-51
2021/11/17 02:57:25;;;;;;;27.87;19.10;;;6.90;99.90;;;;;;4950876;29;20189;-55
2021/11/17 03:00:21;;;;;;;27.20;17.70;;;6.80;99.90;;;;;;4950837;29;20186;-55
2021/11/17 03:03:10;;;;;;;29.37;19.23;;;6.70;99.90;;;;;;4950696;29;20255;-54
2021/11/17 03:05:48;;;;;;;26.73;17.87;;;6.80;99.90;;;;;;4947698;29;20194;-56
2021/11/17 03:08:48;;;;;;;24.60;17.87;;;6.80;99.90;;;;;;4950739;29;20208;-55
2021/11/17 03:11:32;;;;;;;27.60;18.27;;;6.70;99.90;;;;;;4946094;29;20217;-53
2021/11/17 03:14:09;;;;;;;26.80;17.77;;;6.70;99.90;;;;;;4950420;29;20246;-53
2021/11/17 03:17:05;;;;;;;28.07;18.83;;;6.70;99.90;;;;;;4979473;28;20222;-56
2021/11/17 03:19:39;;;;;;;26.30;17.03;;;6.80;99.90;;;;;;5011537;28;20661;-51
2021/11/17 03:22:27;;;;;;;28.50;18.03;;;6.80;99.90;;;;;;5011025;28;20534;-55
2021/11/17 03:25:04;;;;;;;24.83;16.77;;;6.90;99.90;;;;;;5011364;28;20203;-51
2021/11/17 03:27:55;;;;;;;26.95;18.90;;;6.90;99.90;;;;;;5045461;23;20234;-58
2021/11/17 03:30:58;;;;;;;22.13;16.40;;;6.90;99.90;;;;;;4973954;28;20292;-66
2021/11/17 03:33:39;;;;;;;21.47;16.10;;;6.80;99.90;;;;;;4975428;28;20192;-67
2021/11/17 03:36:35;;;;;;;21.73;15.43;;;6.80;99.90;;;;;;4976039;28;20174;-67
2021/11/17 03:39:09;;;;;;;24.10;15.77;;;6.80;99.90;;;;;;4979144;28;20201;-66
2021/11/17 03:41:54;;;;;;;26.67;16.23;;;6.90;99.90;;;;;;4956624;29;20262;-67
2021/11/17 03:44:36;;;;;;;27.03;16.57;;;6.90;99.90;;;;;;4957008;28;20233;-66
2021/11/17 03:47:40;;;;;;;24.47;16.03;;;7.00;99.90;;;;;;4954421;28;20178;-66
2021/11/17 03:50:31;;;;;;;25.93;17.27;;;7.00;99.90;;;;;;4937686;29;20254;-67
2021/11/17 03:53:10;;;;;;;20.53;14.60;;;7.00;99.90;;;;;;4937061;29;20172;-67
2021/11/17 03:55:52;;;;;;;21.33;15.10;;;7.00;99.90;;;;;;4938372;29;20176;-68
2021/11/17 03:58:49;;;;;;;22.90;15.67;;;7.10;99.90;;;;;;4939053;29;20257;-67
2021/11/17 04:02:03;;;;;;;22.93;15.97;;;7.40;99.90;;;;;;4939017;29;20171;-68
2021/11/17 04:04:59;;;;;;;23.73;15.37;;;7.60;99.90;;;;;;4915011;29;20267;-65
2021/11/17 04:07:37;;;;;;;22.80;15.23;;;7.70;99.90;;;;;;4916463;29;20313;-66
2021/11/17 04:10:39;;;;;;;21.37;15.57;;;7.80;99.90;;;;;;4934057;29;20271;-67
2021/11/17 04:13:10;;;;;;;22.90;15.63;;;7.70;99.90;;;;;;4936286;29;20182;-66
2021/11/17 04:15:53;;;;;;;22.50;14.30;;;7.80;99.90;;;;;;4937707;29;20175;-67
2021/11/17 04:18:44;;;;;;;21.27;15.10;;;7.60;99.90;;;;;;4938793;29;20538;-65
2021/11/17 04:21:41;;;;;;;22.30;14.90;;;7.50;99.90;;;;;;4936756;29;20247;-65
2021/11/17 04:24:38;;;;;;;20.47;14.37;;;7.60;99.90;;;;;;4936241;29;20193;-65
2021/11/17 04:27:03;;;;;;;20.60;14.87;;;7.70;99.90;;;;;;4936557;29;20195;-66
2021/11/17 04:29:47;;;;;;;20.37;15.43;;;7.70;99.90;;;;;;4939500;29;20222;-64
2021/11/17 04:32:38;;;;;;;19.77;13.93;;;7.80;99.90;;;;;;4938818;29;20179;-65
2021/11/17 04:35:28;;;;;;;22.97;14.40;;;7.80;99.90;;;;;;4939281;29;20259;-65
2021/11/17 04:38:11;;;;;;;20.80;14.27;;;7.70;99.90;;;;;;4940337;28;20215;-65
2021/11/17 04:40:57;;;;;;;20.20;14.60;;;7.70;99.90;;;;;;4939516;29;20178;-66
2021/11/17 04:43:41;;;;;;;24.17;15.50;;;7.70;99.90;;;;;;4939173;29;20178;-66
2021/11/17 04:46:15;;;;;;;21.40;14.30;;;7.60;99.90;;;;;;4939363;29;20171;-68
2021/11/17 04:48:46;;;;;;;20.33;14.77;;;7.50;99.90;;;;;;4938625;29;20277;-66
2021/11/17 04:51:27;;;;;;;22.23;15.63;;;7.50;99.90;;;;;;4938095;29;20171;-65
2021/11/17 04:54:21;;;;;;;22.43;14.83;;;7.30;99.90;;;;;;4938854;29;20652;-65
2021/11/17 04:57:14;;;;;;;21.13;15.13;;;7.30;99.90;;;;;;4938774;29;20178;-65
2021/11/17 04:59:48;;;;;;;18.03;13.20;;;7.30;99.90;;;;;;4939021;29;20245;-65
2021/11/17 05:02:45;;;;;;;22.07;14.87;;;7.40;99.90;;;;;;4938890;29;20211;-65
2021/11/17 05:05:23;;;;;;;25.33;16.23;;;7.40;99.90;;;;;;4939077;29;20612;-68
2021/11/17 05:08:03;;;;;;;21.73;14.60;;;7.30;99.90;;;;;;4939422;29;20203;-65
2021/11/17 05:10:43;;;;;;;21.33;13.57;;;7.20;99.90;;;;;;4940409;29;20175;-65
2021/11/17 05:13:30;;;;;;;20.47;14.03;;;7.00;99.90;;;;;;4939514;29;20651;-67
2021/11/17 05:16:10;;;;;;;20.07;13.90;;;7.00;99.90;;;;;;4938926;29;20175;-65
2021/11/17 05:18:43;;;;;;;19.57;13.07;;;7.00;99.90;;;;;;4939092;29;20228;-65
2021/11/17 05:21:21;;;;;;;18.50;13.40;;;7.10;99.90;;;;;;4938774;29;20626;-64
2021/11/17 05:23:46;;;;;;;18.80;13.30;;;7.10;99.90;;;;;;4939269;29;20653;-64
2021/11/17 05:26:21;;;;;;;18.53;12.43;;;7.00;99.90;;;;;;4939402;29;20175;-66
2021/11/17 05:29:07;;;;;;;16.63;11.40;;;7.00;99.90;;;;;;4939091;29;20217;-64
2021/11/17 05:32:03;;;;;;;15.17;11.53;;;5.90;99.90;;;;;;4927183;29;20583;-64
2021/11/17 05:34:43;;;;;;;15.27;10.90;;;6.80;99.90;;;;;;4937720;29;20175;-64
2021/11/17 05:37:08;;;;;;;15.40;11.00;;;6.80;99.90;;;;;;4937659;29;20618;-64
2021/11/17 05:39:52;;;;;;;14.57;10.27;;;6.70;99.90;;;;;;4937730;29;20210;-65
2021/11/17 05:42:30;;;;;;;17.17;10.80;;;6.60;99.90;;;;;;4938580;29;20526;-68
2021/11/17 05:45:16;;;;;;;15.87;10.73;;;6.50;99.90;;;;;;4938571;28;20259;-65
2021/11/17 05:47:48;;;;;;;14.77;10.97;;;6.40;99.90;;;;;;4937464;29;20190;-65
2021/11/17 05:50:22;;;;;;;15.03;11.50;;;6.50;99.90;;;;;;4937464;29;20271;-68
2021/11/17 05:52:53;;;;;;;16.30;10.63;;;6.50;99.90;;;;;;4937641;29;20608;-64
2021/11/17 05:55:24;;;;;;;15.83;11.47;;;6.40;99.90;;;;;;4937485;29;20195;-65
2021/11/17 05:58:04;;;;;;;16.63;10.77;;;6.40;99.90;;;;;;4936944;29;20227;-66
2021/11/17 06:00:51;;;;;;;14.67;10.60;;;6.30;99.90;;;;;;4937274;29;20650;-67
2021/11/17 06:04:06;;;;;;;15.43;11.10;;;6.20;99.90;;;;;;4937402;29;20168;-65
2021/11/17 06:06:39;;;;;;;15.90;10.40;;;6.10;99.90;;;;;;4936639;29;20171;-67
2021/11/17 06:09:05;;;;;;;14.43;10.57;;;6.00;99.90;;;;;;4936553;29;20265;-66
2021/11/17 06:11:43;;;;;;;16.70;11.10;;;6.10;99.90;;;;;;4937036;29;20226;-66
2021/11/17 06:14:12;;;;;;;14.77;10.63;;;6.30;99.90;;;;;;4936621;29;20177;-66
2021/11/17 06:16:45;;;;;;;16.53;10.57;;;6.40;99.90;;;;;;4936664;29;20172;-66
2021/11/17 06:19:12;;;;;;;16.80;11.40;;;6.40;99.90;;;;;;4936209;29;20297;-67
2021/11/17 06:21:40;;;;;;;14.13;10.80;;;6.30;99.90;;;;;;4947416;29;20206;-65
2021/11/17 06:24:08;;;;;;;15.03;10.33;;;6.20;99.90;;;;;;4963129;28;20733;-65
2021/11/17 06:26:39;;;;;;;15.17;11.33;;;6.10;99.90;;;;;;4961973;28;20549;-65
2021/11/17 06:29:09;;;;;;;15.37;10.47;;;6.20;99.90;;;;;;4970576;28;20236;-66
2021/11/17 06:31:39;;;;;;;12.90;10.03;;;6.10;99.90;;;;;;4954938;28;20166;-67
2021/11/17 06:34:23;;;;;;;13.63;10.03;;;6.20;99.90;;;;;;4954132;28;20181;-64
2021/11/17 06:36:48;;;;;;;13.70;10.20;;;6.00;99.90;;;;;;4953206;29;20205;-67
2021/11/17 06:39:14;;;;;;;15.77;10.30;;;6.10;99.90;;;;;;4953045;28;20229;-64
2021/11/17 06:41:39;;;;;;;14.37;10.10;;;6.20;99.90;;;;;;4955651;29;20178;-61
2021/11/17 06:44:05;;;;;;;12.90;9.50;;;6.20;99.90;;;;;;4971904;28;20224;-68
2021/11/17 06:46:31;;;;;;;14.00;9.87;;;6.20;99.90;;;;;;4972270;28;20188;-67
2021/11/17 06:48:56;;;;;;;13.77;10.03;;;6.20;99.90;;;;;;4961652;28;20199;-65
2021/11/17 06:51:22;;;;;;;14.07;10.47;;;6.20;99.90;;;;;;4954591;28;20174;-64
2021/11/17 06:53:47;;;;;;;14.83;11.30;;;6.00;99.90;;;;;;4952778;29;20420;-64
2021/11/17 06:56:13;;;;;;;12.40;9.70;;;6.00;99.90;;;;;;4953684;28;20177;-65
2021/11/17 06:58:39;;;;;;;14.27;10.30;;;5.90;99.90;;;;;;4953059;28;20250;-66
2021/11/17 07:01:05;;;;;;;12.13;9.63;;;6.00;99.90;;;;;;4952131;28;20170;-65
2021/11/17 07:03:30;;;;;;;13.60;10.23;;;6.10;99.90;;;;;;4961676;28;20174;-65
2021/11/17 07:05:57;;;;;;;12.77;9.40;;;6.20;99.90;;;;;;4972296;28;20180;-65
2021/11/17 07:08:23;;;;;;;13.10;10.20;;;6.20;99.90;;;;;;4956688;28;20499;-65
2021/11/17 07:10:49;;;;;;;13.00;10.17;;;6.20;99.90;;;;;;4952541;28;20170;-63
2021/11/17 07:13:15;;;;;;;13.70;10.23;;;6.20;99.90;;;;;;4952573;28;20166;-65
2021/11/17 07:15:41;;;;;;;12.73;9.57;;;5.60;99.90;;;;;;4950112;28;20181;-62
2021/11/17 07:18:08;;;;;;;12.50;9.30;;;6.00;99.90;;;;;;4955848;28;20194;-65
2021/11/17 07:20:35;;;;;;;13.63;10.13;;;6.00;99.90;;;;;;4954690;28;20179;-64
2021/11/17 07:23:01;;;;;;;12.37;9.37;;;6.00;99.90;;;;;;4947646;29;20198;-65
2021/11/17 07:25:26;;;;;;;12.03;9.73;;;6.20;99.90;;;;;;4950110;29;20202;-64
2021/11/17 07:27:55;;;;;;;11.60;9.50;;;6.10;99.90;;;;;;4950964;28;20206;-64
2021/11/17 07:30:24;;;;;;;13.43;9.60;;;6.10;99.90;;;;;;4937328;29;20185;-67
2021/11/17 07:32:50;;;;;;;13.90;10.07;;;6.20;99.90;;;;;;4952303;28;20641;-66
2021/11/17 07:35:17;;;;;;;11.90;9.27;;;6.20;99.90;;;;;;4950611;28;20170;-65
2021/11/17 07:37:42;;;;;;;15.20;9.83;;;6.20;99.90;;;;;;4948365;28;20182;-65
2021/11/17 07:40:11;;;;;;;14.20;9.93;;;6.40;99.90;;;;;;4935468;29;20171;-63
2021/11/17 07:42:37;;;;;;;12.23;9.30;;;6.50;99.90;;;;;;4936531;29;20200;-64
2021/11/17 07:45:04;;;;;;;12.13;8.93;;;6.50;99.90;;;;;;4950138;28;20186;-65
2021/11/17 07:47:29;;;;;;;10.70;9.37;;;6.40;99.90;;;;;;4950841;28;20233;-64
2021/11/17 07:49:55;;;;;;;12.97;9.53;;;6.30;99.90;;;;;;4951300;29;20257;-63
2021/11/17 07:52:20;;;;;;;12.17;9.27;;;6.40;99.90;;;;;;4951465;28;20170;-64
2021/11/17 07:54:46;;;;;;;12.13;9.10;;;6.50;99.90;;;;;;4951489;29;20173;-65
2021/11/17 07:57:11;;;;;;;12.73;9.87;;;6.60;99.90;;;;;;4951760;29;20223;-64
2021/11/17 07:59:39;;;;;;;12.30;8.90;;;6.50;99.90;;;;;;4952437;28;20209;-63
2021/11/17 08:02:11;;;;;;;12.37;9.77;;;6.40;99.90;;;;;;4942497;28;20202;-62
2021/11/17 08:04:38;;;;;;;13.03;9.17;;;6.40;99.90;;;;;;4936975;29;20634;-65
2021/11/17 08:07:08;;;;;;;12.00;9.27;;;6.40;99.90;;;;;;4936278;29;20800;-65
2021/11/17 08:09:34;;;;;;;12.03;9.27;;;6.30;99.90;;;;;;4936705;29;20201;-64
2021/11/17 08:12:00;;;;;;;11.40;9.00;;;6.40;99.90;;;;;;4936515;29;20183;-64
2021/11/17 08:14:25;;;;;;;11.30;8.47;;;6.40;99.90;;;;;;4951041;29;20262;-62
2021/11/17 08:16:51;;;;;;;10.63;8.57;;;6.40;99.90;;;;;;4936656;29;20178;-63
2021/11/17 08:19:16;;;;;;;11.00;9.03;;;6.40;99.90;;;;;;4954163;28;20304;-65
2021/11/17 08:21:42;;;;;;;11.23;8.80;;;6.60;99.90;;;;;;4955466;29;20609;-64
2021/11/17 08:24:08;;;;;;;12.07;9.60;;;6.60;99.90;;;;;;4953804;29;20727;-62
2021/11/17 08:26:33;;;;;;;12.60;9.20;;;6.50;99.90;;;;;;4955471;28;20589;-63
2021/11/17 08:28:59;;;;;;;12.13;9.60;;;6.40;99.90;;;;;;4956712;28;20214;-64
2021/11/17 08:31:25;;;;;;;13.43;9.03;;;6.30;99.90;;;;;;4956319;29;20176;-64
2021/11/17 08:33:53;;;;;;;11.77;9.10;;;6.30;99.90;;;;;;4955592;29;20537;-64
2021/11/17 08:36:19;;;;;;;12.43;9.80;;;6.30;99.90;;;;;;4955098;28;20175;-62
2021/11/17 08:38:45;;;;;;;11.30;9.23;;;6.20;99.90;;;;;;4955940;28;20301;-66
2021/11/17 08:41:12;;;;;;;11.97;9.40;;;6.30;99.90;;;;;;4955581;29;20250;-64
2021/11/17 08:43:41;;;;;;;12.33;9.40;;;6.30;99.90;;;;;;4955371;28;20167;-64
2021/11/17 08:46:07;;;;;;;13.03;9.80;;;6.20;99.90;;;;;;4955439;28;20174;-63
2021/11/17 08:48:34;;;;;;;10.57;8.87;;;6.10;99.90;;;;;;4955479;28;20285;-62
2021/11/17 08:51:02;;;;;;;12.37;9.47;;;6.00;99.90;;;;;;4955319;28;20178;-64
2021/11/17 08:53:31;;;;;;;13.43;9.77;;;6.00;99.90;;;;;;4954922;28;20209;-63
2021/11/17 08:55:58;;;;;;;12.77;9.43;;;6.10;99.90;;;;;;4955603;28;20178;-63
2021/11/17 08:58:24;;;;;;;13.20;9.70;;;6.10;99.90;;;;;;4954955;28;20765;-64
2021/11/17 09:00:51;;;;;;;12.37;9.97;;;6.30;99.90;;;;;;4955668;28;20178;-63
2021/11/17 09:03:17;;;;;;;12.60;10.13;;;6.20;99.90;;;;;;4954970;28;20256;-64
2021/11/17 09:05:49;;;;;;;11.70;9.37;;;6.20;99.90;;;;;;4954842;28;20211;-63
2021/11/17 09:08:16;;;;;;;12.37;10.10;;;6.30;99.90;;;;;;4955028;28;20191;-62
2021/11/17 09:10:45;;;;;;;11.77;9.47;;;6.50;99.90;;;;;;4955214;28;20731;-66
2021/11/17 09:13:11;;;;;;;11.97;10.10;;;6.50;99.90;;;;;;4955253;28;20175;-63
2021/11/17 09:15:39;;;;;;;12.93;10.40;;;6.50;99.90;;;;;;4953512;28;20181;-63
2021/11/17 09:18:07;;;;;;;12.83;10.37;;;6.40;99.90;;;;;;4954923;28;20208;-64
2021/11/17 09:20:34;;;;;;;11.30;9.63;;;6.60;99.90;;;;;;4953680;29;20202;-65
2021/11/17 09:23:02;;;;;;;11.90;9.93;;;6.10;99.90;;;;;;4954761;28;20194;-67
2021/11/17 09:25:28;;;;;;;12.67;10.00;;;5.90;99.90;;;;;;4954740;28;20177;-65
2021/11/17 09:27:54;;;;;;;11.90;9.80;;;5.90;99.90;;;;;;4954166;28;20195;-63
2021/11/17 09:30:23;;;;;;;11.73;9.77;;;6.00;99.90;;;;;;4954391;28;20225;-65
2021/11/17 09:32:52;;;;;;;13.07;10.33;;;6.10;99.90;;;;;;4954230;28;20178;-63
2021/11/17 09:35:18;;;;;;;13.90;10.33;;;6.10;99.90;;;;;;4954423;28;20656;-63
2021/11/17 09:37:46;;;;;;;13.63;10.73;;;5.90;99.90;;;;;;4953807;28;20649;-64
2021/11/17 09:40:16;;;;;;;15.57;10.57;;;5.90;99.90;;;;;;4953626;28;20582;-67
2021/11/17 09:42:42;;;;;;;13.37;10.27;;;5.90;99.90;;;;;;4951413;28;20167;-63
2021/11/17 09:45:10;;;;;;;14.77;10.80;;;5.80;99.90;;;;;;4936492;29;20177;-62
2021/11/17 09:47:38;;;;;;;14.00;10.63;;;6.00;99.90;;;;;;4951046;28;20175;-65
2021/11/17 09:50:13;;;;;;;13.43;10.00;;;6.00;99.90;;;;;;4952413;29;20199;-65
2021/11/17 09:52:55;;;;;;;11.70;9.87;;;6.00;99.90;;;;;;4952688;28;20190;-66
2021/11/17 09:55:43;;;;;;;12.13;9.80;;;6.10;99.90;;;;;;4947538;29;20253;-66
2021/11/17 09:58:30;;;;;;;12.80;10.23;;;6.00;99.90;;;;;;4952450;28;20206;-65
2021/11/17 10:01:01;;;;;;;12.57;10.33;;;6.00;99.90;;;;;;4983469;23;20224;-51
2021/11/17 10:03:35;;;;;;;11.70;10.03;;;6.10;99.90;;;;;;4990905;28;20204;-55
2021/11/17 10:06:39;;;;;;;12.53;9.77;;;6.20;99.90;;;;;;4990735;28;20181;-54
2021/11/17 10:09:35;;;;;;;12.37;9.90;;;6.20;99.90;;;;;;4991428;28;20172;-53
2021/11/17 10:15:00;;;;;;;12.47;10.37;;;6.00;99.90;;;;;;4987073;28;20176;-55
2021/11/17 10:17:46;;;;;;;11.80;9.53;;;6.00;99.90;;;;;;4977527;28;20184;-52
2021/11/17 10:20:24;;;;;;;11.23;9.73;;;6.10;99.90;;;;;;4973040;28;20196;-50
2021/11/17 10:23:16;;;;;;;13.63;10.43;;;6.10;99.90;;;;;;4972464;28;20189;-49
2021/11/17 10:25:55;;;;;;;11.27;9.30;;;5.90;99.90;;;;;;4972838;28;20177;-49
2021/11/17 10:28:26;;;;;;;12.87;9.73;;;5.90;99.90;;;;;;4972786;28;20173;-52
2021/11/17 10:31:04;;;;;;;11.43;9.43;;;5.90;99.90;;;;;;4972138;28;20197;-54
2021/11/17 10:33:44;;;;;;;13.07;9.57;;;5.90;99.90;;;;;;4971864;28;20678;-53
2021/11/17 10:36:18;;;;;;;10.27;9.10;;;5.90;99.90;;;;;;4986166;28;20192;-50
2021/11/17 10:38:48;;;;;;;11.20;9.23;;;5.90;99.90;;;;;;4992122;28;20224;-53
2021/11/17 10:41:26;;;;;;;12.07;9.40;;;5.90;99.90;;;;;;4990374;28;20219;-51
2021/11/17 10:43:56;;;;;;;12.83;8.60;;;5.90;99.90;;;;;;4991650;28;20183;-53
2021/11/17 10:46:31;;;;;;;11.90;8.80;;;5.90;99.90;;;;;;4991749;28;20177;-57
2021/11/17 10:49:12;;;;;;;9.93;8.30;;;5.80;99.90;;;;;;4991257;28;20234;-53
2021/11/17 10:51:55;;;;;;;10.33;8.60;;;5.90;99.90;;;;;;4990870;28;20536;-51
2021/11/17 10:54:25;;;;;;;10.50;8.33;;;6.20;99.90;;;;;;4990168;28;20177;-53
2021/11/17 10:57:10;;;;;;;11.47;8.83;;;6.40;99.90;;;;;;4986208;28;20273;-54
2021/11/17 10:59:37;;;;;;;11.43;8.87;;;6.30;99.90;;;;;;4990323;28;20218;-51
2021/11/17 11:02:04;;;;;;;10.53;7.70;;;6.30;99.90;;;;;;4991028;28;20217;-49
2021/11/17 11:04:43;;;;;;;10.10;8.17;;;6.30;99.90;;;;;;4990979;28;20216;-47
2021/11/17 11:07:31;;;;;;;9.87;7.87;;;6.40;99.90;;;;;;4991365;28;20165;-49
2021/11/17 11:10:11;;;;;;;9.20;7.50;;;6.40;99.90;;;;;;4991148;28;20270;-51
2021/11/17 11:12:38;;;;;;;10.03;7.23;;;6.60;99.90;;;;;;4990815;28;20567;-49
2021/11/17 11:15:16;;;;;;;11.07;8.13;;;6.70;99.90;;;;;;4980454;28;20192;-59
2021/11/17 11:18:12;;;;;;;9.13;7.73;;;6.70;99.90;;;;;;4977791;28;20180;-48
2021/11/17 11:20:52;;;;;;;10.60;7.90;;;6.60;99.90;;;;;;4990623;28;20197;-50
2021/11/17 11:23:20;;;;;;;8.83;7.67;;;6.40;99.90;;;;;;4990566;28;20169;-54
2021/11/17 11:26:00;;;;;;;9.77;7.90;;;6.40;99.90;;;;;;4990198;28;20169;-56
2021/11/17 11:28:34;;;;;;;8.90;7.20;;;6.10;99.90;;;;;;4991478;28;20655;-56
2021/11/17 11:31:03;;;;;;;10.50;7.40;;;6.20;99.90;;;;;;4991136;28;20189;-51
2021/11/17 11:33:48;;;;;;;9.50;7.53;;;6.00;99.90;;;;;;4991348;28;20188;-52
2021/11/17 11:36:14;;;;;;;8.33;7.30;;;6.00;99.90;;;;;;4987735;28;20177;-53
2021/11/17 11:38:48;;;;;;;10.33;7.77;;;5.90;99.90;;;;;;4989961;28;20260;-49
2021/11/17 11:41:36;;;;;;;10.67;7.40;;;6.10;99.90;;;;;;4989914;28;20194;-51
2021/11/17 11:44:20;;;;;;;9.40;7.67;;;6.20;99.90;;;;;;4990255;28;20208;-52
2021/11/17 11:46:50;;;;;;;9.67;7.57;;;6.10;99.90;;;;;;4990880;28;20235;-50
2021/11/17 11:49:33;;;;;;;11.60;7.73;;;6.10;99.90;;;;;;4990260;28;20200;-54
2021/11/17 11:52:13;;;;;;;8.90;7.30;;;6.10;99.90;;;;;;4990334;28;20239;-54
2021/11/17 11:54:51;;;;;;;8.27;6.93;;;5.90;99.90;;;;;;4988111;28;20191;-52
2021/11/17 11:57:46;;;;;;;10.87;8.03;;;6.10;99.90;;;;;;4970695;28;20785;-51
2021/11/17 12:00:32;;;;;;;9.67;7.73;;;6.00;99.90;;;;;;4970294;28;20178;-50
2021/11/17 12:03:06;;;;;;;10.40;7.57;;;5.90;99.90;;;;;;4970858;28;20181;-49
2021/11/17 12:05:40;;;;;;;9.73;7.37;;;6.20;99.90;;;;;;4970982;28;20248;-54
2021/11/17 12:08:22;;;;;;;9.00;7.40;;;6.10;99.90;;;;;;4970904;28;20178;-46
2021/11/17 12:11:06;;;;;;;9.63;8.10;;;6.60;99.90;;;;;;4970981;28;20200;-52
2021/11/17 12:13:44;;;;;;;9.70;8.20;;;6.30;99.90;;;;;;4969427;28;20177;-54
2021/11/17 12:16:13;;;;;;;9.93;7.70;;;5.80;99.90;;;;;;4976200;28;20173;-54
2021/11/17 12:18:46;;;;;;;9.17;7.53;;;6.30;99.90;;;;;;4988974;28;20663;-47
2021/11/17 12:21:20;;;;;;;10.13;7.97;;;6.30;99.90;;;;;;4990467;28;20188;-48
2021/11/17 12:24:01;;;;;;;9.70;7.83;;;6.70;99.90;;;;;;4990175;28;20173;-51
2021/11/17 12:26:28;;;;;;;10.20;7.83;;;6.30;99.90;;;;;;4990523;28;20646;-51
2021/11/17 12:29:00;;;;;;;11.47;8.53;;;6.10;99.90;;;;;;4989875;28;20174;-57
2021/11/17 12:31:32;;;;;;;9.80;8.00;;;6.30;99.90;;;;;;4990299;28;20228;-53
2021/11/17 12:34:07;;;;;;;10.67;7.57;;;6.20;99.90;;;;;;4989614;28;20200;-52
2021/11/17 12:36:45;;;;;;;9.27;7.23;;;6.00;99.90;;;;;;4990205;28;20643;-53
2021/11/17 12:39:16;;;;;;;9.97;7.73;;;5.90;99.90;;;;;;4988959;28;20212;-48
2021/11/17 12:41:42;;;;;;;9.30;7.20;;;6.10;99.90;;;;;;4989987;28;20678;-53
2021/11/17 12:44:20;;;;;;;10.87;7.80;;;6.20;99.90;;;;;;4989773;28;20165;-52
2021/11/17 12:47:20;;;;;;;8.53;7.37;;;6.20;99.90;;;;;;4985028;28;20187;-51
2021/11/17 12:50:09;;;;;;;8.30;6.80;;;6.20;99.90;;;;;;4993206;28;20187;-54
2021/11/17 12:52:50;;;;;;;8.27;6.70;;;6.30;99.90;;;;;;4993100;28;20185;-59
2021/11/17 12:55:50;;;;;;;9.13;6.93;;;6.00;99.90;;;;;;4993878;28;20679;-55
2021/11/17 12:58:23;;;;;;;10.23;7.30;;;6.30;99.90;;;;;;4993348;28;20222;-55
2021/11/17 13:01:16;;;;;;;9.10;7.07;;;6.30;99.90;;;;;;4993802;28;20280;-55
2021/11/17 13:03:47;;;;;;;8.90;7.20;;;6.60;99.90;;;;;;4992577;28;20220;-56
2021/11/17 13:06:52;;;;;;;9.80;7.60;;;6.50;99.90;;;;;;4983309;28;20252;-54
2021/11/17 13:09:43;;;;;;;8.83;7.40;;;6.30;99.90;;;;;;4992263;28;20227;-57
2021/11/17 13:12:26;;;;;;;8.43;7.27;;;6.20;99.90;;;;;;4991497;28;20836;-56
2021/11/17 13:15:03;;;;;;;8.20;7.27;;;6.20;99.90;;;;;;4992738;28;20180;-54
2021/11/17 13:17:42;;;;;;;7.87;6.83;;;6.20;99.90;;;;;;4993022;28;20222;-54
2021/11/17 13:20:13;;;;;;;8.50;7.03;;;6.20;99.90;;;;;;4992862;28;20228;-59
2021/11/17 13:22:45;;;;;;;9.27;7.80;;;6.40;99.90;;;;;;4991889;28;20169;-51
2021/11/17 13:25:19;;;;;;;9.47;7.60;;;6.30;99.90;;;;;;4993179;28;20574;-53
2021/11/17 13:27:53;;;;;;;10.03;7.80;;;6.30;99.90;;;;;;4993290;28;20176;-56
2021/11/17 13:30:40;;;;;;;9.93;8.10;;;6.20;99.90;;;;;;4993157;28;20204;-52
2021/11/17 13:33:26;;;;;;;9.47;7.27;;;6.40;99.90;;;;;;4993208;28;20708;-52
2021/11/17 13:36:10;;;;;;;9.80;7.60;;;6.60;99.90;;;;;;4993187;28;20179;-53
2021/11/17 13:38:56;;;;;;;10.33;8.27;;;6.50;99.90;;;;;;4993744;28;20204;-55
2021/11/17 13:41:21;;;;;;;11.37;8.60;;;6.50;99.90;;;;;;4993130;28;20667;-49
2021/11/17 13:43:47;;;;;;;9.03;7.40;;;6.60;99.90;;;;;;4993420;28;20228;-52
2021/11/17 13:46:16;;;;;;;8.80;7.80;;;6.80;99.90;;;;;;4993424;28;20169;-51
2021/11/17 13:48:43;;;;;;;10.67;7.50;;;7.00;99.90;;;;;;4993716;28;20181;-54
2021/11/17 13:51:12;;;;;;;10.73;8.10;;;7.00;99.90;;;;;;4993461;28;20291;-53
2021/11/17 13:53:39;;;;;;;10.37;8.30;;;7.10;99.90;;;;;;4992830;28;20177;-51
2021/11/17 13:56:15;;;;;;;9.00;7.90;;;6.90;99.90;;;;;;4993272;28;20227;-56
2021/11/17 13:58:41;;;;;;;10.83;8.00;;;7.20;99.90;;;;;;4992835;28;20196;-52
2021/11/17 14:01:07;;;;;;;10.10;7.87;;;7.10;99.90;;;;;;4992320;28;20263;-57
2021/11/17 14:03:34;;;;;;;8.87;7.97;;;7.10;99.90;;;;;;4992874;28;20177;-56
2021/11/17 14:06:03;;;;;;;9.27;8.03;;;7.10;99.90;;;;;;4992942;28;20168;-52
2021/11/17 14:08:30;;;;;;;12.00;8.30;;;6.80;99.90;;;;;;4993008;28;20546;-54
2021/11/17 14:10:56;;;;;;;8.80;7.87;;;6.70;99.90;;;;;;4992838;28;20583;-52
2021/11/17 14:13:21;;;;;;;10.37;8.67;;;6.70;99.90;;;;;;4992306;28;20188;-52
2021/11/17 14:15:47;;;;;;;10.07;8.77;;;6.70;99.90;;;;;;4992823;28;20180;-59
2021/11/17 14:18:14;;;;;;;10.07;8.70;;;6.60;99.90;;;;;;4992376;28;20232;-57
2021/11/17 14:20:40;;;;;;;10.80;9.07;;;6.50;99.90;;;;;;4992582;28;20275;-57
2021/11/17 14:23:06;;;;;;;9.27;8.30;;;6.50;99.90;;;;;;4992183;28;20179;-59
2021/11/17 14:25:34;;;;;;;9.73;8.53;;;6.50;99.90;;;;;;4992332;28;20180;-55
2021/11/17 14:28:04;;;;;;;10.30;8.90;;;6.40;99.90;;;;;;4992431;28;20172;-57
2021/11/17 14:30:48;;;;;;;10.63;9.10;;;6.30;99.90;;;;;;4992184;28;20201;-55
2021/11/17 14:33:20;;;;;;;11.97;9.13;;;6.30;99.90;;;;;;4992263;28;20623;-55
2021/11/17 14:35:46;;;;;;;10.80;9.37;;;6.20;99.90;;;;;;4992132;28;20581;-55
2021/11/17 14:38:17;;;;;;;11.33;9.33;;;6.20;99.90;;;;;;4992276;28;20193;-57
2021/11/17 14:40:45;;;;;;;11.97;9.40;;;6.10;99.90;;;;;;4991085;28;20575;-54
2021/11/17 14:43:11;;;;;;;11.83;9.70;;;6.10;99.90;;;;;;4992097;28;20253;-57
2021/11/17 14:45:39;;;;;;;11.77;10.07;;;6.10;99.90;;;;;;4974976;28;20200;-56
2021/11/17 14:48:04;;;;;;;11.67;9.40;;;6.10;99.90;;;;;;4992132;28;20694;-55
2021/11/17 14:50:30;;;;;;;13.63;10.80;;;6.20;99.90;;;;;;4992068;28;20189;-57
2021/11/17 14:52:56;;;;;;;12.87;10.67;;;6.30;99.90;;;;;;4991935;28;20552;-55
2021/11/17 14:55:26;;;;;;;12.07;9.40;;;6.20;99.90;;;;;;4992021;28;20173;-54
2021/11/17 14:57:53;;;;;;;12.53;10.77;;;;;;;;;;4991649;28;20252;-55
2021/11/17 15:00:32;;;;;;;14.13;10.50;;;6.10;99.90;;;;;;4991912;28;20193;-57
2021/11/17 15:02:58;;;;;;;12.67;9.73;;;6.10;99.90;;;;;;4991724;28;20169;-57
2021/11/17 15:05:26;;;;;;;11.60;9.80;;;5.60;99.90;;;;;;4992035;28;20528;-57
2021/11/17 15:07:52;;;;;;;12.27;9.67;;;;;;;;;;4991653;28;20187;-56
2021/11/17 15:10:19;;;;;;;11.87;10.13;;;6.10;99.90;;;;;;4991720;28;20224;-58
2021/11/17 15:12:44;;;;;;;12.70;10.67;;;6.10;99.90;;;;;;4987634;28;20180;-54
2021/11/17 15:15:15;;;;;;;13.67;11.00;;;6.10;99.90;;;;;;4990518;28;20169;-52
2021/11/17 15:17:41;;;;;;;13.37;11.00;;;6.10;99.90;;;;;;4991795;28;20180;-53
2021/11/17 15:20:08;;;;;;;13.03;10.73;;;6.10;99.90;;;;;;4989415;28;20208;-54
2021/11/17 15:22:36;;;;;;;13.67;10.57;;;5.50;99.90;;;;;;4990048;28;20184;-52
2021/11/17 15:25:03;;;;;;;14.23;10.87;;;6.00;99.90;;;;;;4990901;28;20177;-56
2021/11/17 15:27:34;;;;;;;12.43;10.53;;;6.30;99.90;;;;;;4991518;28;20260;-52
2021/11/17 15:30:01;;;;;;;12.77;10.53;;;6.20;99.90;;;;;;4981659;28;20185;-56
2021/11/17 15:32:28;;;;;;;13.30;10.27;;;6.30;99.90;;;;;;4982660;28;20681;-51
2021/11/17 15:34:53;;;;;;;13.00;10.40;;;6.20;99.90;;;;;;4991477;28;20234;-50
2021/11/17 15:37:19;;;;;;;12.23;9.77;;;5.70;99.90;;;;;;4995323;28;20598;-47
2021/11/17 15:39:45;;;;;;;11.40;10.07;;;6.20;99.90;;;;;;4991373;28;20216;-54
2021/11/17 15:42:10;;;;;;;12.67;10.40;;;6.30;99.90;;;;;;4990350;28;20214;-57
2021/11/17 15:44:36;;;;;;;12.20;10.70;;;6.30;99.90;;;;;;4990941;28;20173;-46
2021/11/17 15:47:07;;;;;;;11.97;10.03;;;6.30;99.90;;;;;;4991173;28;20532;-50
2021/11/17 15:49:34;;;;;;;13.70;9.93;;;6.40;99.90;;;;;;4995077;28;20196;-52
2021/11/17 15:52:00;;;;;;;13.10;10.17;;;6.30;99.90;;;;;;4990708;28;20201;-51
2021/11/17 15:54:26;;;;;;;11.73;9.80;;;6.40;99.90;;;;;;4989647;28;20177;-51